createdAt,value
2023-03-13T00:02:18.403Z,98360.47
2023-03-13T00:05:34.702Z,98350.64
2023-03-13T00:08:51.134Z,98350.18
2023-03-13T00:12:07.172Z,98347.22
2023-03-13T00:15:23.385Z,98354.65
2023-03-13T00:18:40.155Z,98355.98
2023-03-13T00:21:56.190Z,98360.77
2023-03-13T00:25:13.203Z,98365.05
2023-03-13T00:28:30.432Z,98371.64
2023-03-13T00:31:47.146Z,98360.97
2023-03-13T00:35:05.125Z,98337.98
2023-03-13T00:38:21.073Z,98339.63
2023-03-13T00:41:39.226Z,98338.49
2023-03-13T00:44:55.247Z,98310.55
2023-03-13T00:48:12.748Z,98314.16
2023-03-13T00:51:31.056Z,98310.38
2023-03-13T00:54:47.202Z,98309.73
2023-03-13T00:58:03.542Z,98318.27
2023-03-13T01:01:22.616Z,98300.84
2023-03-13T01:04:38.852Z,98305.30
2023-03-13T01:07:54.984Z,98294.10
2023-03-13T01:11:13.414Z,98296.09
2023-03-13T01:14:30.127Z,98292.31
2023-03-13T01:21:03.183Z,98285.57
2023-03-13T01:24:20.996Z,98268.82
2023-03-13T01:27:37.217Z,98265.19
2023-03-13T01:30:53.306Z,98267.81
2023-03-13T01:34:11.895Z,98273.07
2023-03-13T01:37:30.787Z,98268.48
2023-03-13T01:40:52.725Z,98273.41
2023-03-13T01:44:09.228Z,98269.81
2023-03-13T01:47:26.890Z,98269.16
2023-03-13T01:50:55.402Z,98274.55
2023-03-13T01:54:21.368Z,98270.65
2023-03-13T01:57:42.650Z,98267.05
2023-03-13T02:01:00.611Z,98278.88
2023-03-13T02:04:17.688Z,98283.80
2023-03-13T02:07:38.749Z,98288.59
2023-03-13T02:11:02.211Z,98295.67
2023-03-13T02:14:20.288Z,98297.16
2023-03-13T02:17:37.550Z,98293.72
2023-03-13T02:20:54.245Z,98299.31
2023-03-13T02:24:15.629Z,98301.64
2023-03-13T02:27:32.411Z,98312.50
2023-03-13T02:30:50.375Z,98310.20
2023-03-13T02:34:09.704Z,98310.38
2023-03-13T02:37:27.366Z,98323.19
2023-03-13T02:40:48.232Z,98322.05
2023-03-13T02:44:04.531Z,98327.81
2023-03-13T02:47:24.280Z,98336.21
2023-03-13T02:50:41.839Z,98336.88
2023-03-13T02:54:01.786Z,98340.02
2023-03-13T02:57:19.037Z,98350.38
2023-03-13T03:00:35.423Z,98353.52
2023-03-13T03:03:51.915Z,98352.36
2023-03-13T03:07:08.704Z,98353.17
2023-03-13T03:10:26.013Z,98348.58
2023-03-13T03:13:42.262Z,98352.87
2023-03-13T03:16:58.541Z,98350.88
2023-03-13T03:20:17.043Z,98352.53
2023-03-13T03:23:33.142Z,98352.86
2023-03-13T03:26:49.251Z,98345.30
2023-03-13T03:30:07.716Z,98350.28
2023-03-13T03:33:24.675Z,98350.28
2023-03-13T03:36:40.660Z,98346.67
2023-03-13T03:39:56.851Z,98342.89
2023-03-13T03:43:13.581Z,98345.34
2023-03-13T03:46:30.399Z,98345.34
2023-03-13T03:49:46.385Z,98344.37
2023-03-13T03:53:03.156Z,98353.92
2023-03-13T03:56:19.519Z,98356.38
2023-03-13T03:59:37.242Z,98352.77
2023-03-13T04:02:54.979Z,98352.77
2023-03-13T04:06:12.606Z,98348.31
2023-03-13T04:09:31.573Z,98343.88
2023-03-13T04:12:48.423Z,98352.25
2023-03-13T04:16:04.509Z,98351.61
2023-03-13T04:19:20.528Z,98351.61
2023-03-13T04:22:37.136Z,98352.11
2023-03-13T04:25:53.247Z,98357.52
2023-03-13T04:29:09.397Z,98354.75
2023-03-13T04:35:59.972Z,98358.36
2023-03-13T04:39:17.805Z,98353.77
2023-03-13T04:42:47.690Z,98353.91
2023-03-13T04:46:11.480Z,98348.64
2023-03-13T04:49:45.681Z,98348.50
2023-03-13T04:53:21.790Z,98349.80
2023-03-13T04:56:55.442Z,98355.24
2023-03-13T05:00:19.423Z,98349.98
2023-03-13T05:07:11.212Z,98355.40
2023-03-13T05:10:29.066Z,98352.77
2023-03-13T05:13:50.916Z,98351.78
2023-03-13T05:17:26.612Z,98335.98
2023-03-13T06:15:44.884Z,98312.52
2023-03-13T06:19:03.047Z,98306.89
2023-03-13T06:22:19.394Z,98308.22
2023-03-13T06:25:35.672Z,98310.50
2023-03-13T06:28:51.795Z,98310.81
2023-03-13T06:32:08.322Z,98304.86
2023-03-13T06:35:24.900Z,98313.73
2023-03-13T06:38:41.694Z,98303.49
2023-03-13T06:42:02.264Z,98299.50
2023-03-13T06:45:20.861Z,98296.72
2023-03-13T06:48:36.883Z,98299.66
2023-03-13T06:51:53.299Z,98295.34
2023-03-13T06:55:09.443Z,98299.27
2023-03-13T06:58:32.546Z,98301.06
2023-03-13T07:01:43.854Z,98302.39
2023-03-13T07:05:00.010Z,98306.67
2023-03-13T07:08:16.673Z,98303.64
2023-03-13T07:11:33.183Z,98298.25
2023-03-13T07:14:49.295Z,98297.90
2023-03-13T07:18:08.034Z,98295.53
2023-03-13T07:21:25.577Z,98299.99
2023-03-13T07:24:43.060Z,98298.27
2023-03-13T07:28:02.753Z,98308.94
2023-03-13T07:31:24.792Z,98306.75
2023-03-13T07:37:58.309Z,98306.20
2023-03-13T07:41:17.725Z,98299.23
2023-03-13T07:44:35.339Z,98295.55
2023-03-13T07:47:52.959Z,98290.62
2023-03-13T07:51:11.902Z,98285.23
2023-03-13T07:54:30.108Z,98283.86
2023-03-13T07:57:47.949Z,98274.17
2023-03-13T08:01:04.962Z,98278.00
2023-03-13T08:04:23.996Z,98270.27
2023-03-13T08:07:40.511Z,98278.86
2023-03-13T08:10:58.103Z,98280.66
2023-03-13T08:14:14.577Z,98274.23
2023-03-13T08:17:31.431Z,98259.42
2023-03-13T08:20:48.413Z,98268.19
2023-03-13T08:24:08.033Z,98253.30
2023-03-13T08:27:24.774Z,98236.75
2023-03-13T08:30:42.962Z,98255.84
2023-03-13T08:34:01.170Z,98248.30
2023-03-13T08:37:22.959Z,98253.84
2023-03-13T08:40:39.603Z,98251.40
2023-03-13T08:43:58.582Z,98241.95
2023-03-13T08:47:19.017Z,98242.36
2023-03-13T08:50:39.224Z,98239.53
2023-03-13T08:53:56.889Z,98229.08
2023-03-13T08:57:13.769Z,98231.98
2023-03-13T09:00:30.942Z,98239.13
2023-03-13T09:07:06.340Z,98213.95
2023-03-13T09:10:24.703Z,98218.02
2023-03-13T09:13:44.369Z,98220.78
2023-03-13T09:17:00.978Z,98212.58
2023-03-13T09:20:20.626Z,98210.39
2023-03-13T09:23:37.495Z,98202.86
2023-03-13T09:27:01.056Z,98202.80
2023-03-13T09:30:14.076Z,98207.45
2023-03-13T09:33:31.984Z,98200.14
2023-03-13T09:36:49.308Z,98203.36
2023-03-13T09:40:08.780Z,98199.19
2023-03-13T09:43:34.145Z,98199.89
2023-03-13T09:46:58.181Z,98199.95
2023-03-13T09:50:19.388Z,98193.09
2023-03-13T09:53:42.295Z,98188.42
2023-03-13T09:57:03.302Z,98191.67
2023-03-13T10:00:27.846Z,98184.73
2023-03-13T10:03:48.914Z,98178.91
2023-03-13T10:07:05.999Z,98172.50
2023-03-13T10:10:27.313Z,98169.66
2023-03-13T10:13:48.447Z,98161.01
2023-03-13T10:17:09.929Z,98144.73
2023-03-13T10:20:33.190Z,98155.22
2023-03-13T10:23:54.610Z,98156.09
2023-03-13T10:27:13.458Z,98149.20
2023-03-13T10:30:36.192Z,98157.08
2023-03-13T10:37:10.393Z,98149.41
2023-03-13T10:40:33.033Z,98140.80
2023-03-13T10:43:59.359Z,98132.97
2023-03-13T10:47:18.941Z,98126.05
2023-03-13T10:50:40.577Z,98123.64
2023-03-13T10:53:57.195Z,98096.31
2023-03-13T10:57:34.834Z,98105.98
2023-03-13T11:00:51.372Z,98124.80
2023-03-13T11:04:11.769Z,98103.52
2023-03-13T11:07:35.933Z,98102.11
2023-03-13T11:11:06.254Z,98086.13
2023-03-13T11:14:27.716Z,98096.48
2023-03-13T11:18:05.756Z,98093.41
2023-03-13T11:21:29.555Z,98089.58
2023-03-13T11:24:50.585Z,98086.33
2023-03-13T11:28:23.157Z,98077.27
2023-03-13T11:31:43.628Z,98089.45
2023-03-13T11:35:04.198Z,98063.30
2023-03-13T11:38:25.675Z,98061.79
2023-03-13T11:41:59.003Z,98054.78
2023-03-13T11:45:22.897Z,98053.64
2023-03-13T11:49:26.337Z,98060.92
2023-03-13T11:53:11.504Z,98051.35
2023-03-13T11:56:32.385Z,98044.29
2023-03-13T11:59:54.710Z,98035.12
2023-03-13T12:03:18.006Z,98035.41
2023-03-13T12:06:40.415Z,98022.58
2023-03-13T12:10:03.431Z,98008.54
2023-03-13T12:13:25.174Z,98007.80
2023-03-13T12:16:49.300Z,97998.17
2023-03-13T12:20:12.272Z,98013.14
2023-03-13T12:23:32.383Z,98004.10
2023-03-13T12:26:53.322Z,97982.83
2023-03-13T12:30:17.495Z,97976.60
2023-03-13T12:33:43.579Z,97958.83
2023-03-13T12:37:07.692Z,97963.00
2023-03-13T12:40:29.515Z,97971.60
2023-03-13T12:44:04.227Z,97959.06
2023-03-13T12:47:15.632Z,97951.80
2023-03-13T12:50:43.518Z,97959.33
2023-03-13T12:54:26.688Z,97933.56
2023-03-13T12:58:16.919Z,97946.96
2023-03-13T13:01:42.050Z,97930.59
2023-03-13T13:05:01.611Z,97926.42
2023-03-13T13:08:32.173Z,97926.19
2023-03-13T13:12:06.316Z,97933.28
2023-03-13T13:15:29.509Z,97924.84
2023-03-13T13:18:47.278Z,97933.64
2023-03-13T13:22:53.760Z,97934.91
2023-03-13T13:26:56.248Z,97928.42
2023-03-13T13:30:37.690Z,97922.28
2023-03-13T13:33:53.815Z,97915.75
2023-03-13T13:37:26.199Z,97932.53
2023-03-13T13:40:42.890Z,97938.53
2023-03-13T13:44:17.987Z,97928.11
2023-03-13T13:47:37.719Z,97937.00
2023-03-13T13:51:33.240Z,97927.00
2023-03-13T13:55:05.979Z,97931.17
2023-03-13T13:58:29.543Z,97947.83
2023-03-13T14:01:48.805Z,97926.16
2023-03-13T14:08:30.667Z,97912.12
2023-03-13T14:11:48.118Z,97915.30
2023-03-13T14:15:20.792Z,97913.81
2023-03-13T14:18:38.709Z,97923.98
2023-03-13T14:21:55.117Z,97909.12
2023-03-13T14:25:12.979Z,97894.83
2023-03-13T14:28:34.314Z,97890.45
2023-03-13T14:31:57.627Z,97894.80
2023-03-13T14:35:19.992Z,97895.02
2023-03-13T14:38:38.868Z,97891.59
2023-03-13T14:41:58.292Z,97881.06
2023-03-13T14:45:26.111Z,97890.48
2023-03-13T14:48:55.788Z,97885.64
2023-03-13T14:52:19.587Z,97880.52
2023-03-13T14:55:42.722Z,97875.52
2023-03-13T14:58:59.436Z,97875.48
2023-03-13T15:02:28.345Z,97873.37
2023-03-13T15:05:46.186Z,97875.03
2023-03-13T15:09:27.210Z,97859.94
2023-03-13T15:12:50.832Z,97866.45
2023-03-13T15:16:08.593Z,97867.11
2023-03-13T15:22:44.899Z,97855.64
2023-03-13T15:26:01.511Z,97868.55
2023-03-13T15:29:19.430Z,97860.58
2023-03-13T15:32:39.808Z,97862.66
2023-03-13T15:35:56.997Z,97859.83
2023-03-13T15:39:16.791Z,97856.34
2023-03-13T15:42:34.095Z,97856.39
2023-03-13T15:45:53.176Z,97852.10
2023-03-13T15:55:38.204Z,97842.95
2023-03-13T15:58:56.345Z,97835.59
2023-03-13T16:02:19.788Z,97835.21
2023-03-13T16:05:37.506Z,97829.91
2023-03-13T16:08:54.194Z,97827.45
2023-03-13T16:12:11.882Z,97842.81
2023-03-13T16:15:28.611Z,97838.08
2023-03-13T16:18:44.846Z,97841.78
2023-03-13T16:22:01.518Z,97839.54
2023-03-13T16:25:19.859Z,97851.19
2023-03-13T16:28:36.352Z,97858.94
2023-03-13T16:31:53.060Z,97844.23
2023-03-13T16:35:09.637Z,97839.82
2023-03-13T16:38:28.184Z,97842.91
2023-03-13T16:41:45.403Z,97847.44
2023-03-13T16:45:01.430Z,97841.12
2023-03-13T16:48:22.543Z,97836.06
2023-03-13T16:51:39.005Z,97844.83
2023-03-13T16:54:56.058Z,97840.32
2023-03-13T16:58:17.189Z,97838.72
2023-03-13T17:01:35.856Z,97840.97
2023-03-13T17:04:53.897Z,97825.09
2023-03-13T17:08:11.250Z,97833.48
2023-03-13T17:11:36.420Z,97821.23
2023-03-13T17:14:54.085Z,97825.95
2023-03-13T17:18:12.137Z,97816.77
2023-03-13T17:21:33.072Z,97804.33
2023-03-13T17:24:50.869Z,97811.27
2023-03-13T17:28:07.666Z,97806.39
2023-03-13T17:31:26.658Z,97800.49
2023-03-13T17:34:43.573Z,97791.73
2023-03-13T17:38:02.423Z,97788.89
2023-03-13T17:41:26.305Z,97788.48
2023-03-13T17:44:46.501Z,97781.57
2023-03-13T17:48:22.072Z,97778.52
2023-03-13T17:51:42.334Z,97767.52
2023-03-13T17:55:00.246Z,97754.66
2023-03-13T17:58:19.029Z,97754.89
2023-03-13T18:01:39.307Z,97747.92
2023-03-13T18:04:58.521Z,97746.69
2023-03-13T18:08:22.964Z,97746.11
2023-03-13T18:11:40.246Z,97739.75
2023-03-13T18:14:59.119Z,97730.57
2023-03-13T18:18:16.102Z,97726.31
2023-03-13T18:21:34.370Z,97725.48
2023-03-13T18:24:52.673Z,97719.13
2023-03-13T18:28:11.297Z,97713.83
2023-03-13T18:31:29.711Z,97713.40
2023-03-13T18:34:47.583Z,97699.52
2023-03-13T18:38:09.201Z,97689.52
2023-03-13T18:41:27.639Z,97679.89
2023-03-13T18:44:44.691Z,97665.56
2023-03-13T18:48:04.771Z,97666.18
2023-03-13T18:51:25.532Z,97664.53
2023-03-13T18:54:45.187Z,97649.85
2023-03-13T18:58:02.498Z,97642.47
2023-03-13T19:01:23.950Z,97627.00
2023-03-13T19:04:42.474Z,97621.86
2023-03-13T19:07:59.445Z,97615.53
2023-03-13T19:11:20.806Z,97622.25
2023-03-13T19:14:39.313Z,97637.34
2023-03-13T19:17:56.995Z,97630.84
2023-03-13T19:21:23.311Z,97621.69
2023-03-13T19:24:39.987Z,97617.86
2023-03-13T19:27:59.514Z,97621.23
2023-03-13T19:31:18.558Z,97616.19
2023-03-13T19:39:18.115Z,97604.87
2023-03-13T19:42:36.322Z,97601.67
2023-03-13T19:45:56.714Z,97605.73
2023-03-13T19:49:14.970Z,97606.36
2023-03-13T19:56:01.392Z,97612.67
2023-03-13T19:59:22.191Z,97602.08
2023-03-13T20:02:41.796Z,97589.27
2023-03-13T20:09:22.072Z,97587.20
2023-03-13T20:12:40.122Z,97590.05
2023-03-13T20:16:00.475Z,97599.80
2023-03-13T20:19:18.694Z,97599.97
2023-03-13T20:22:35.985Z,97604.84
2023-03-13T20:25:54.656Z,97601.36
2023-03-13T20:29:12.075Z,97588.54
2023-03-13T20:32:30.265Z,97577.88
2023-03-13T20:39:06.387Z,97581.78
2023-03-13T20:42:24.682Z,97574.53
2023-03-13T20:45:41.274Z,97572.48
2023-03-13T20:48:59.073Z,97573.14
2023-03-13T20:52:16.383Z,97561.56
2023-03-13T20:55:33.505Z,97565.23
2023-03-13T20:58:50.113Z,97563.20
2023-03-13T21:02:07.283Z,97566.67
2023-03-13T21:05:28.420Z,97559.75
2023-03-13T21:08:45.473Z,97555.28
2023-03-13T21:12:02.038Z,97553.42
2023-03-13T21:15:20.476Z,97542.83
2023-03-13T21:18:36.987Z,97536.31
2023-03-13T21:21:53.584Z,97532.03
2023-03-13T21:25:13.226Z,97531.80
2023-03-13T21:28:29.612Z,97533.41
2023-03-13T21:31:46.115Z,97512.03
2023-03-13T21:35:02.766Z,97504.05
2023-03-13T21:38:19.099Z,97507.19
2023-03-13T21:41:35.979Z,97504.69
2023-03-13T21:44:54.691Z,97507.44
2023-03-13T21:48:11.407Z,97509.58
2023-03-13T21:51:27.555Z,97514.80
2023-03-13T21:54:44.034Z,97492.08
2023-03-13T21:58:00.324Z,97489.48
2023-03-13T22:01:17.698Z,97492.48
2023-03-13T22:04:33.857Z,97483.65
2023-03-13T22:07:51.364Z,97481.75
2023-03-13T22:11:08.316Z,97471.28
2023-03-13T22:14:26.525Z,97469.83
2023-03-13T22:17:42.564Z,97458.98
2023-03-13T22:24:16.483Z,97467.17
2023-03-13T22:27:32.954Z,97471.00
2023-03-13T22:30:50.940Z,97472.03
2023-03-13T22:34:07.100Z,97473.66
2023-03-13T22:40:40.654Z,97471.10
2023-03-13T22:43:56.729Z,97474.98
2023-03-13T22:47:12.912Z,97473.58
2023-03-13T22:53:48.409Z,97458.33
2023-03-13T22:57:04.760Z,97462.23
2023-03-13T23:00:23.740Z,97449.62
2023-03-13T23:03:39.877Z,97434.94
2023-03-13T23:06:56.134Z,97448.78
2023-03-13T23:10:14.284Z,97446.81
2023-03-13T23:13:30.311Z,97453.42
2023-03-13T23:16:46.935Z,97454.75
2023-03-13T23:20:08.158Z,97450.50
2023-03-13T23:26:41.053Z,97433.09
2023-03-13T23:29:57.837Z,97428.91
2023-03-13T23:33:14.184Z,97418.84
2023-03-13T23:39:46.980Z,97410.45
2023-03-13T23:43:03.025Z,97415.23
2023-03-13T23:46:27.022Z,97408.19
2023-03-13T23:49:43.213Z,97391.34
2023-03-13T23:52:59.463Z,97385.95
2023-03-13T23:56:16.892Z,97382.46
2023-03-13T23:59:33.028Z,97378.64
